createdAt,value
2017-12-25T00:00:42.562Z,89
2017-12-25T00:01:49.515Z,89.2
2017-12-25T00:02:52.819Z,89.3
2017-12-25T00:03:56.366Z,89.4
2017-12-25T00:04:59.775Z,89.2
2017-12-25T00:06:03.338Z,88.9
2017-12-25T00:07:06.867Z,89
2017-12-25T00:08:10.261Z,89.2
2017-12-25T00:09:13.982Z,89.3
2017-12-25T00:10:17.460Z,89.2
2017-12-25T00:11:20.881Z,89.2
2017-12-25T00:12:28.054Z,89.2
2017-12-25T00:13:31.384Z,89.1
2017-12-25T00:14:34.841Z,88.7
2017-12-25T00:15:38.908Z,88.7
2017-12-25T00:16:42.463Z,89
2017-12-25T00:17:46.067Z,89.2
2017-12-25T00:18:49.408Z,89.3
2017-12-25T00:19:53.301Z,89.3
2017-12-25T00:20:56.595Z,89.5
2017-12-25T00:22:00.081Z,89.8
2017-12-25T00:23:07.683Z,89.7
2017-12-25T00:24:11.760Z,90
2017-12-25T00:25:15.336Z,90
2017-12-25T00:26:18.655Z,90
2017-12-25T00:27:22.052Z,90
2017-12-25T00:28:25.483Z,90
2017-12-25T00:29:28.864Z,89.7
2017-12-25T00:30:33.046Z,89.6
2017-12-25T00:31:36.559Z,89.7
2017-12-25T00:32:40.500Z,89.5
2017-12-25T00:33:47.270Z,89.2
2017-12-25T00:34:50.648Z,89.3
2017-12-25T00:35:54.568Z,88.9
2017-12-25T00:36:58.822Z,89
2017-12-25T00:38:02.319Z,88.6
2017-12-25T00:39:06.378Z,88.3
2017-12-25T00:40:10.376Z,88.2
2017-12-25T00:41:13.863Z,88.2
2017-12-25T00:42:18.144Z,88.2
2017-12-25T00:43:21.483Z,88.3
2017-12-25T00:44:28.620Z,88.3
2017-12-25T00:45:32.007Z,88.3
2017-12-25T00:46:36.128Z,88.3
2017-12-25T00:47:39.590Z,88.3
2017-12-25T00:48:43.097Z,88.3
2017-12-25T00:49:46.434Z,88
2017-12-25T00:50:49.936Z,88.1
2017-12-25T00:51:54.162Z,87.8
2017-12-25T00:52:57.768Z,87.5
2017-12-25T00:54:01.263Z,87.9
2017-12-25T00:55:08.132Z,87.9
2017-12-25T00:56:12.584Z,88
2017-12-25T00:57:16.298Z,87.9
2017-12-25T00:58:19.636Z,87.7
2017-12-25T00:59:23.148Z,88.2
2017-12-25T01:00:26.662Z,87.5
2017-12-25T01:01:30.036Z,87.8
2017-12-25T01:02:33.452Z,88
2017-12-25T01:03:36.937Z,88
2017-12-25T01:04:41.681Z,88.2
2017-12-25T01:05:49.807Z,88.2
2017-12-25T01:06:53.422Z,88.3
2017-12-25T01:07:56.815Z,88.5
2017-12-25T01:09:00.190Z,88.6
2017-12-25T01:10:03.801Z,88.7
2017-12-25T01:11:07.285Z,88.4
2017-12-25T01:12:10.786Z,88.4
2017-12-25T01:13:14.173Z,88.2
2017-12-25T01:14:17.605Z,88.4
2017-12-25T01:15:21.716Z,88.5
2017-12-25T01:16:28.904Z,88.8
2017-12-25T01:17:32.259Z,89.4
2017-12-25T01:18:35.792Z,89.3
2017-12-25T01:19:39.143Z,89.1
2017-12-25T01:20:42.712Z,89.3
2017-12-25T01:21:46.968Z,89.3
2017-12-25T01:22:50.430Z,89.2
2017-12-25T01:23:54.679Z,89
2017-12-25T01:24:58.137Z,88.8
2017-12-25T01:26:01.653Z,88.7
2017-12-25T01:27:08.419Z,88.9
2017-12-25T01:28:11.844Z,88.7
2017-12-25T01:29:15.442Z,88.1
2017-12-25T01:30:18.938Z,88.1
2017-12-25T01:31:22.444Z,87.9
2017-12-25T01:32:25.976Z,87.7
2017-12-25T01:33:29.501Z,87.5
2017-12-25T01:34:32.774Z,87.3
2017-12-25T01:35:36.196Z,87.5
2017-12-25T01:36:40.391Z,87.8
2017-12-25T01:37:47.567Z,87.8
2017-12-25T01:38:51.024Z,87.9
2017-12-25T01:39:54.550Z,87.8
2017-12-25T01:40:58.016Z,87.7
2017-12-25T01:42:01.584Z,87.9
2017-12-25T01:43:05.077Z,87.9
2017-12-25T01:44:10.492Z,88.1
2017-12-25T01:45:14.024Z,88.1
2017-12-25T01:46:17.463Z,88.1
2017-12-25T01:47:21.085Z,88.1
2017-12-25T01:48:28.033Z,88.8
2017-12-25T01:49:31.561Z,88.2
2017-12-25T01:50:35.004Z,88.3
2017-12-25T01:51:38.366Z,88
2017-12-25T01:52:41.832Z,88
2017-12-25T01:53:45.263Z,87.7
2017-12-25T01:54:48.765Z,87.7
2017-12-25T01:55:52.311Z,87.9
2017-12-25T01:56:55.632Z,87.8
2017-12-25T01:57:59.065Z,87.8
2017-12-25T01:59:06.156Z,87.9
2017-12-25T02:00:09.722Z,87.7
2017-12-25T02:01:13.266Z,87.6
2017-12-25T02:02:16.832Z,87.3
2017-12-25T02:03:20.218Z,87.2
2017-12-25T02:04:23.696Z,87.4
2017-12-25T02:05:27.071Z,87.4
2017-12-25T02:06:30.570Z,87.4
2017-12-25T02:07:34.003Z,87.2
2017-12-25T02:08:37.619Z,87.2
2017-12-25T02:09:43.863Z,87.3
2017-12-25T02:10:47.446Z,87.3
2017-12-25T02:11:51.493Z,88
2017-12-25T02:12:54.977Z,87.1
2017-12-25T02:13:58.200Z,87
2017-12-25T02:15:01.508Z,87.1
2017-12-25T02:16:05.077Z,87.1
2017-12-25T02:17:08.462Z,86.9
2017-12-25T02:18:11.914Z,86.9
2017-12-25T02:19:15.388Z,87
2017-12-25T02:20:22.230Z,86.9
2017-12-25T02:21:25.752Z,86.9
2017-12-25T02:22:29.248Z,87
2017-12-25T02:23:32.675Z,87
2017-12-25T02:24:36.002Z,87
2017-12-25T02:25:39.429Z,86.6
2017-12-25T02:26:42.834Z,86.9
2017-12-25T02:27:46.224Z,87
2017-12-25T02:28:49.784Z,87.2
2017-12-25T02:29:54.030Z,86.9
2017-12-25T02:31:01.807Z,86.9
2017-12-25T02:32:05.108Z,86.9
2017-12-25T02:33:08.724Z,87.1
2017-12-25T02:34:12.086Z,87.1
2017-12-25T02:35:15.493Z,87.2
2017-12-25T02:36:18.795Z,86.8
2017-12-25T02:37:22.269Z,86.8
2017-12-25T02:38:25.724Z,86.7
2017-12-25T02:39:29.213Z,87.1
2017-12-25T02:40:32.778Z,86.8
2017-12-25T02:41:39.702Z,86.7
2017-12-25T02:42:43.809Z,86.7
2017-12-25T02:43:47.606Z,86.8
2017-12-25T02:44:51.095Z,86.8
2017-12-25T02:45:54.424Z,86.7
2017-12-25T02:47:01.742Z,86.8
2017-12-25T02:48:05.125Z,86.6
2017-12-25T02:49:08.419Z,86.8
2017-12-25T02:50:11.824Z,86.8
2017-12-25T02:51:15.969Z,87
2017-12-25T02:52:23.667Z,86.6
2017-12-25T02:53:27.175Z,87.4
2017-12-25T02:54:30.852Z,86.6
2017-12-25T02:55:34.486Z,86.6
2017-12-25T02:56:38.049Z,86.7
2017-12-25T02:57:41.615Z,86.4
2017-12-25T02:58:45.204Z,86.3
2017-12-25T02:59:48.668Z,86.5
2017-12-25T03:00:52.533Z,86.5
2017-12-25T03:01:56.031Z,86.6
2017-12-25T03:03:03.050Z,86.6
2017-12-25T03:04:06.528Z,86.5
2017-12-25T03:05:10.147Z,86.5
2017-12-25T03:06:13.575Z,86.4
2017-12-25T03:07:16.994Z,86.3
2017-12-25T03:08:20.312Z,86.3
2017-12-25T03:09:23.791Z,86.2
2017-12-25T03:10:27.549Z,86.3
2017-12-25T03:11:31.218Z,86.5
2017-12-25T03:12:34.813Z,86.4
2017-12-25T03:13:42.831Z,86.6
2017-12-25T03:14:46.676Z,86.6
2017-12-25T03:15:50.038Z,86.4
2017-12-25T03:16:53.398Z,86.5
2017-12-25T03:17:56.812Z,86.7
2017-12-25T03:19:00.217Z,86.6
2017-12-25T03:20:03.637Z,86.6
2017-12-25T03:21:07.281Z,86.5
2017-12-25T03:22:10.556Z,86.5
2017-12-25T03:23:14.059Z,86.6
2017-12-25T03:24:21.003Z,86.8
2017-12-25T03:25:24.425Z,86.9
2017-12-25T03:26:29.053Z,86.9
2017-12-25T03:27:32.999Z,87
2017-12-25T03:28:36.409Z,87.1
2017-12-25T03:29:40.389Z,87.2
2017-12-25T03:30:44.553Z,87.2
2017-12-25T03:31:48.591Z,87.3
2017-12-25T03:32:52.749Z,87.2
2017-12-25T03:33:56.135Z,87.3
2017-12-25T03:35:03.364Z,87.5
2017-12-25T03:36:07.490Z,87.5
2017-12-25T03:37:11.205Z,87.7
2017-12-25T03:38:14.701Z,87.7
2017-12-25T03:39:18.840Z,87.7
2017-12-25T03:40:23.132Z,87.8
2017-12-25T03:41:26.541Z,87.8
2017-12-25T03:42:30.278Z,87.5
2017-12-25T03:43:33.689Z,87.5
2017-12-25T03:44:37.738Z,87.4
2017-12-25T03:45:45.992Z,87.2
2017-12-25T03:46:49.617Z,87.3
2017-12-25T03:47:53.894Z,87.3
2017-12-25T03:48:57.390Z,87.3
2017-12-25T03:50:02.120Z,87.1
2017-12-25T03:51:05.274Z,87.2
2017-12-25T03:52:08.609Z,87.3
2017-12-25T03:53:12.628Z,87.2
2017-12-25T03:54:15.901Z,87.2
2017-12-25T03:55:19.440Z,87.3
2017-12-25T03:56:26.641Z,87.3
2017-12-25T03:57:29.626Z,87.3
2017-12-25T03:58:33.176Z,87.2
2017-12-25T03:59:37.310Z,87
2017-12-25T04:00:40.803Z,87
2017-12-25T04:01:44.248Z,86.9
2017-12-25T04:02:47.707Z,86.7
2017-12-25T04:03:51.204Z,86.7
2017-12-25T04:04:54.427Z,86.8
2017-12-25T04:05:59.643Z,86.8
2017-12-25T04:07:08.000Z,86.9
2017-12-25T04:08:11.438Z,87.1
2017-12-25T04:09:16.021Z,87.1
2017-12-25T04:10:20.330Z,86.9
2017-12-25T04:11:24.466Z,86.9
2017-12-25T04:12:27.708Z,86.6
2017-12-25T04:13:32.068Z,86.5
2017-12-25T04:14:35.844Z,86.7
2017-12-25T04:15:39.898Z,86.8
2017-12-25T04:16:43.436Z,86.8
2017-12-25T04:17:50.518Z,86.5
2017-12-25T04:18:54.112Z,86.8
2017-12-25T04:19:57.539Z,86.7
2017-12-25T04:21:01.110Z,86.6
2017-12-25T04:22:04.578Z,86.6
2017-12-25T04:23:09.607Z,86.5
2017-12-25T04:24:13.120Z,86.6
2017-12-25T04:25:16.415Z,86.5
2017-12-25T04:26:19.867Z,86.5
2017-12-25T04:27:24.276Z,86.6
2017-12-25T04:28:31.154Z,86.7
2017-12-25T04:29:37.149Z,86.7
2017-12-25T04:30:40.847Z,86.8
2017-12-25T04:31:45.676Z,86.8
2017-12-25T04:32:49.090Z,86.9
2017-12-25T04:33:52.509Z,86.8
2017-12-25T04:34:55.933Z,86.7
2017-12-25T04:36:00.475Z,86.8
2017-12-25T04:37:04.511Z,86.9
2017-12-25T04:38:09.139Z,86.8
2017-12-25T04:39:17.449Z,86.8
2017-12-25T04:40:21.381Z,86.8
2017-12-25T04:41:24.830Z,86.7
2017-12-25T04:42:28.826Z,86.7
2017-12-25T04:43:32.912Z,86.6
2017-12-25T04:44:36.320Z,86.8
2017-12-25T04:45:41.014Z,86.6
2017-12-25T04:46:45.251Z,86.6
2017-12-25T04:47:48.645Z,86.5
2017-12-25T04:48:52.940Z,86.9
2017-12-25T04:50:00.452Z,87
2017-12-25T04:51:04.590Z,87.1
2017-12-25T04:52:08.049Z,87.4
2017-12-25T04:53:12.548Z,87.4
2017-12-25T04:54:15.977Z,87.2
2017-12-25T04:55:19.384Z,87.4
2017-12-25T04:56:22.653Z,87.1
2017-12-25T04:57:26.856Z,87.2
2017-12-25T04:58:30.195Z,87.1
2017-12-25T04:59:33.678Z,86.8
2017-12-25T05:00:42.163Z,86.7
2017-12-25T05:01:45.548Z,86.8
2017-12-25T05:02:48.809Z,87.5
2017-12-25T05:03:52.257Z,87
2017-12-25T05:04:55.791Z,86.9
2017-12-25T05:06:00.120Z,86.8
2017-12-25T05:07:03.599Z,86.8
2017-12-25T05:08:07.592Z,86.8
2017-12-25T05:09:11.802Z,86.9
2017-12-25T05:10:15.122Z,86.8
2017-12-25T05:11:22.259Z,86.9
2017-12-25T05:12:26.183Z,87.1
2017-12-25T05:13:29.851Z,86.8
2017-12-25T05:14:33.880Z,86.6
2017-12-25T05:15:37.228Z,86.5
2017-12-25T05:16:40.656Z,86.5
2017-12-25T05:17:44.030Z,86.3
2017-12-25T05:18:47.899Z,86.2
2017-12-25T05:19:51.219Z,86.3
2017-12-25T05:20:54.701Z,86.3
2017-12-25T05:22:01.493Z,86.6
2017-12-25T05:23:05.049Z,86.6
2017-12-25T05:24:08.441Z,86.6
2017-12-25T05:25:11.897Z,86.8
2017-12-25T05:26:15.810Z,86.5
2017-12-25T05:27:18.948Z,86.9
2017-12-25T05:28:22.997Z,86.7
2017-12-25T05:29:26.780Z,86.3
2017-12-25T05:30:31.738Z,86.5
2017-12-25T05:31:35.227Z,86.7
2017-12-25T05:32:42.200Z,86.8
2017-12-25T05:33:46.229Z,86.8
2017-12-25T05:34:49.623Z,86.7
2017-12-25T05:35:53.148Z,86.4
2017-12-25T05:36:56.664Z,86.2
2017-12-25T05:38:00.100Z,86.1
2017-12-25T05:39:03.532Z,86.1
2017-12-25T05:40:06.991Z,86.1
2017-12-25T05:41:10.336Z,86
2017-12-25T05:42:13.857Z,85.7
2017-12-25T05:43:20.811Z,85.8
2017-12-25T05:44:24.199Z,85.8
2017-12-25T05:45:27.943Z,85.4
2017-12-25T05:46:31.317Z,85.4
2017-12-25T05:47:34.767Z,85.6
2017-12-25T05:48:38.442Z,85.6
2017-12-25T05:49:41.897Z,85.5
2017-12-25T05:50:45.567Z,85.4
2017-12-25T05:51:49.148Z,85.7
2017-12-25T05:52:53.430Z,85.6
2017-12-25T05:54:01.112Z,85.5
2017-12-25T05:55:04.588Z,85.4
2017-12-25T05:56:08.282Z,85.4
2017-12-25T05:57:11.681Z,85.5
2017-12-25T05:58:15.209Z,85.4
2017-12-25T05:59:18.556Z,85.7
2017-12-25T06:00:22.043Z,85.7
2017-12-25T06:01:25.482Z,85.7
2017-12-25T06:02:28.989Z,85.8
2017-12-25T06:03:32.433Z,85.8
2017-12-25T06:04:41.861Z,85.8
2017-12-25T06:05:45.367Z,86
2017-12-25T06:06:49.418Z,86.3
2017-12-25T06:07:53.069Z,86.4
2017-12-25T06:08:57.315Z,86.2
2017-12-25T06:10:00.612Z,86.2
2017-12-25T06:11:04.049Z,86.1
2017-12-25T06:12:07.837Z,86.1
2017-12-25T06:13:11.291Z,86.2
2017-12-25T06:14:15.238Z,86.2
2017-12-25T06:15:21.370Z,86
2017-12-25T06:16:24.770Z,85.9
2017-12-25T06:17:29.115Z,85.8
2017-12-25T06:18:33.094Z,85.9
2017-12-25T06:19:37.224Z,85.8
2017-12-25T06:20:41.136Z,86.1
2017-12-25T06:21:44.570Z,86
2017-12-25T06:22:48.333Z,86
2017-12-25T06:23:51.666Z,86
2017-12-25T06:24:55.128Z,86
2017-12-25T06:26:03.113Z,86
2017-12-25T06:27:08.034Z,85.9
2017-12-25T06:28:13.585Z,86
2017-12-25T06:29:17.673Z,86.6
2017-12-25T06:30:20.994Z,85.7
2017-12-25T06:31:24.276Z,85.8
2017-12-25T06:32:27.847Z,86.2
2017-12-25T06:33:31.433Z,86
2017-12-25T06:34:34.852Z,86.1
2017-12-25T06:35:39.010Z,86.2
2017-12-25T06:36:46.592Z,86.4
2017-12-25T06:37:50.135Z,86.3
2017-12-25T06:38:53.326Z,86.6
2017-12-25T06:39:56.873Z,86.5
2017-12-25T06:41:00.310Z,86.7
2017-12-25T06:42:03.669Z,86.5
2017-12-25T06:43:07.644Z,86
2017-12-25T06:44:11.395Z,86.3
2017-12-25T06:45:14.753Z,86.3
2017-12-25T06:46:18.221Z,86.3
2017-12-25T06:47:25.210Z,86.4
2017-12-25T06:48:28.764Z,86.5
2017-12-25T06:49:32.446Z,86.7
2017-12-25T06:50:35.890Z,86.6
2017-12-25T06:51:39.116Z,86.6
2017-12-25T06:52:43.342Z,86.6
2017-12-25T06:53:46.685Z,86.4
2017-12-25T06:54:51.344Z,86.4
2017-12-25T06:55:56.390Z,86.5
2017-12-25T06:57:00.041Z,86.8
2017-12-25T06:58:08.191Z,86.6
2017-12-25T06:59:12.078Z,86.3
2017-12-25T07:00:16.084Z,86.3
2017-12-25T07:01:20.200Z,86.1
2017-12-25T07:02:23.658Z,85.9
2017-12-25T07:03:27.193Z,85.9
2017-12-25T07:04:30.683Z,86.2
2017-12-25T07:05:35.519Z,86.3
2017-12-25T07:06:39.026Z,86.3
2017-12-25T07:07:42.484Z,86.2
2017-12-25T07:08:52.152Z,85.9
2017-12-25T07:09:55.722Z,86
2017-12-25T07:10:59.161Z,86.2
2017-12-25T07:12:02.611Z,86.4
2017-12-25T07:13:06.001Z,86.8
2017-12-25T07:14:09.806Z,86.9
2017-12-25T07:15:17.272Z,86.9
2017-12-25T07:16:21.483Z,87.1
2017-12-25T07:17:24.995Z,86.9
2017-12-25T07:18:28.711Z,86.8
2017-12-25T07:19:36.762Z,86.6
2017-12-25T07:20:40.680Z,86.6
2017-12-25T07:21:44.331Z,86.6
2017-12-25T07:22:48.461Z,86.4
2017-12-25T07:23:52.709Z,86.5
2017-12-25T07:24:55.859Z,86.5
2017-12-25T07:26:00.128Z,86.5
2017-12-25T07:27:05.686Z,86.6
2017-12-25T07:28:10.856Z,86.6
2017-12-25T07:29:15.190Z,86.3
2017-12-25T07:30:23.609Z,86.3
2017-12-25T07:31:28.290Z,86.5
2017-12-25T07:32:35.405Z,86.4
2017-12-25T07:33:39.166Z,86.3
2017-12-25T07:34:42.384Z,86.2
2017-12-25T07:35:47.431Z,86.2
2017-12-25T07:36:53.029Z,86.1
2017-12-25T07:37:56.924Z,85.9
2017-12-25T07:39:00.677Z,86
2017-12-25T07:40:04.137Z,86
2017-12-25T07:41:12.448Z,86.1
2017-12-25T07:42:16.888Z,86.2
2017-12-25T07:43:21.047Z,86.3
2017-12-25T07:44:24.231Z,86.6
2017-12-25T07:45:27.864Z,86.6
2017-12-25T07:46:31.421Z,86.6
2017-12-25T07:47:34.901Z,86.7
2017-12-25T07:48:38.419Z,87
2017-12-25T07:49:41.933Z,87.1
2017-12-25T07:50:45.450Z,86.9
2017-12-25T07:51:53.386Z,86.9
2017-12-25T07:52:56.908Z,86.8
2017-12-25T07:54:00.992Z,86.9
2017-12-25T07:55:06.073Z,86.9
2017-12-25T07:56:10.145Z,86.6
2017-12-25T07:57:13.797Z,86.6
2017-12-25T07:58:19.944Z,86.8
2017-12-25T07:59:23.297Z,86.8
2017-12-25T08:00:27.704Z,86.8
2017-12-25T08:01:31.325Z,86.6
2017-12-25T08:02:38.566Z,86.4
2017-12-25T08:03:42.565Z,86.6
2017-12-25T08:04:46.029Z,86.5
2017-12-25T08:05:49.644Z,86.6
2017-12-25T08:06:55.121Z,87.1
2017-12-25T08:07:58.596Z,87.2
2017-12-25T08:09:02.248Z,87.3
2017-12-25T08:10:05.864Z,87.2
2017-12-25T08:11:11.154Z,87.3
2017-12-25T08:12:14.399Z,87.3
2017-12-25T08:13:23.431Z,87.4
2017-12-25T08:14:26.577Z,87.4
2017-12-25T08:15:31.917Z,87.5
2017-12-25T08:16:35.822Z,87.7
2017-12-25T08:17:41.862Z,87.5
2017-12-25T08:18:45.993Z,87.3
2017-12-25T08:19:50.186Z,87.4
2017-12-25T08:20:53.696Z,87.5
2017-12-25T08:21:57.887Z,88
2017-12-25T08:23:02.423Z,88.4
2017-12-25T08:24:10.185Z,88.1
2017-12-25T08:25:13.461Z,87.6
2017-12-25T08:26:17.733Z,87.7
2017-12-25T08:27:21.735Z,87.5
2017-12-25T08:28:26.627Z,87.5
2017-12-25T08:29:29.718Z,87.5
2017-12-25T08:30:33.249Z,87.3
2017-12-25T08:31:36.506Z,87.2
2017-12-25T08:32:41.289Z,86.8
2017-12-25T08:33:44.520Z,86.8
2017-12-25T08:34:52.651Z,86.4
2017-12-25T08:35:55.947Z,86.2
2017-12-25T08:37:00.115Z,85.7
2017-12-25T08:38:03.465Z,85.5
2017-12-25T08:39:06.956Z,85.1
2017-12-25T08:40:11.102Z,84.8
2017-12-25T08:41:15.078Z,84.7
2017-12-25T08:42:18.821Z,84.4
2017-12-25T08:43:22.955Z,83.6
2017-12-25T08:44:27.884Z,83
2017-12-25T08:45:35.495Z,83
2017-12-25T08:46:38.934Z,82.9
2017-12-25T08:47:42.851Z,82.6
2017-12-25T08:48:46.964Z,82.5
2017-12-25T08:49:50.139Z,82.5
2017-12-25T08:50:53.653Z,82.6
2017-12-25T08:51:57.170Z,82.6
2017-12-25T08:53:00.663Z,82.4
2017-12-25T08:54:04.284Z,82.5
2017-12-25T08:55:08.454Z,82.6
2017-12-25T08:56:16.152Z,82.4
2017-12-25T08:57:20.350Z,81.8
2017-12-25T08:58:23.896Z,81.6
2017-12-25T08:59:28.304Z,81.7
2017-12-25T09:00:33.161Z,81.8
2017-12-25T09:01:36.713Z,81.9
2017-12-25T09:02:40.237Z,81.6
2017-12-25T09:03:44.042Z,81.3
2017-12-25T09:04:48.237Z,81
2017-12-25T09:05:51.792Z,80.7
2017-12-25T09:06:58.994Z,80.7
2017-12-25T09:08:02.493Z,80.9
2017-12-25T09:09:06.048Z,80.7
2017-12-25T09:10:09.597Z,80.8
2017-12-25T09:11:13.855Z,80
2017-12-25T09:12:18.740Z,80.1
2017-12-25T09:13:22.735Z,80.1
2017-12-25T09:14:27.227Z,79.5
2017-12-25T09:15:33.301Z,79.3
2017-12-25T09:16:36.429Z,79
2017-12-25T09:17:44.194Z,79
2017-12-25T09:18:48.122Z,78.7
2017-12-25T09:19:52.189Z,78.6
2017-12-25T09:21:02.458Z,78.9
2017-12-25T09:22:08.750Z,78.6
2017-12-25T09:23:13.505Z,78.6
2017-12-25T09:24:21.204Z,78.4
2017-12-25T09:25:27.662Z,79
2017-12-25T09:26:33.810Z,78.5
2017-12-25T09:27:41.049Z,79
2017-12-25T09:28:50.588Z,78.1
2017-12-25T09:29:58.447Z,78.8
2017-12-25T09:31:08.003Z,78.8
2017-12-25T09:32:12.500Z,78.2
2017-12-25T09:33:20.795Z,78
2017-12-25T09:34:29.552Z,76.7
2017-12-25T09:35:36.730Z,76.9
2017-12-25T09:36:54.351Z,76.7
2017-12-25T09:38:02.642Z,77.7
2017-12-25T09:39:11.613Z,76.8
2017-12-25T09:40:25.420Z,76
2017-12-25T09:41:32.925Z,76.1
2017-12-25T09:42:52.475Z,75.9
2017-12-25T09:43:59.759Z,75.3
2017-12-25T09:45:06.273Z,75.9
2017-12-25T09:46:13.779Z,75.3
2017-12-25T09:47:21.238Z,75
2017-12-25T09:48:29.542Z,75.6
2017-12-25T09:49:35.041Z,75.6
2017-12-25T09:50:44.044Z,73.7
2017-12-25T09:51:58.566Z,74.1
2017-12-25T09:53:02.147Z,74.6
2017-12-25T09:54:05.607Z,74.7
2017-12-25T09:55:09.795Z,74.5
2017-12-25T09:56:13.264Z,75.4
2017-12-25T09:57:16.706Z,76
2017-12-25T09:58:21.932Z,76
2017-12-25T09:59:26.126Z,75.1
2017-12-25T10:00:29.481Z,74.3
2017-12-25T10:01:34.964Z,73.8
2017-12-25T10:02:44.543Z,73.8
2017-12-25T10:03:50.899Z,74
2017-12-25T10:04:56.427Z,73.3
2017-12-25T10:06:03.160Z,74
2017-12-25T10:07:08.673Z,73.7
2017-12-25T10:08:12.924Z,73.4
2017-12-25T10:09:18.888Z,73.3
2017-12-25T10:10:23.585Z,71.9
2017-12-25T10:11:29.010Z,71.9
2017-12-25T10:12:32.261Z,72.2
2017-12-25T10:13:42.132Z,72
2017-12-25T10:14:45.732Z,72
2017-12-25T10:15:49.357Z,70.8
2017-12-25T10:16:52.833Z,70.7
2017-12-25T10:17:56.644Z,71.5
2017-12-25T10:18:59.979Z,71.3
2017-12-25T10:20:04.391Z,71.1
2017-12-25T10:21:09.164Z,71
2017-12-25T10:22:13.157Z,71.6
2017-12-25T10:23:17.363Z,71.3
2017-12-25T10:24:24.588Z,71
2017-12-25T10:25:29.876Z,70.5
2017-12-25T10:26:34.038Z,69.9
2017-12-25T10:27:37.488Z,70.2
2017-12-25T10:28:41.578Z,69.1
2017-12-25T10:29:46.078Z,68.9
2017-12-25T10:30:50.209Z,69.6
2017-12-25T10:31:55.585Z,70.2
2017-12-25T10:33:03.011Z,70.5
2017-12-25T10:34:07.316Z,70.4
2017-12-25T10:35:15.885Z,70.2
2017-12-25T10:36:21.451Z,69.5
2017-12-25T10:37:26.699Z,69.7
2017-12-25T10:38:30.319Z,69.6
2017-12-25T10:39:36.125Z,69.7
2017-12-25T10:40:43.006Z,68.9
2017-12-25T10:41:46.527Z,69.8
2017-12-25T10:42:50.062Z,70
2017-12-25T10:43:53.497Z,68.9
2017-12-25T10:44:58.033Z,68.4
2017-12-25T10:46:06.783Z,67.2
2017-12-25T10:47:10.846Z,67.5
2017-12-25T10:48:14.870Z,66.9
2017-12-25T10:49:21.350Z,67.2
2017-12-25T10:50:27.202Z,67.3
2017-12-25T10:51:34.488Z,67.5
2017-12-25T10:52:41.862Z,67.9
2017-12-25T10:53:45.858Z,68.6
2017-12-25T10:54:50.125Z,68.6
2017-12-25T10:55:53.556Z,68.3
2017-12-25T10:57:01.552Z,67.3
2017-12-25T10:58:05.294Z,66.7
2017-12-25T10:59:08.657Z,67.8
2017-12-25T11:00:12.193Z,67.7
2017-12-25T11:01:15.717Z,67.2
2017-12-25T11:02:19.844Z,67.8
2017-12-25T11:03:23.435Z,67.7
2017-12-25T11:04:28.052Z,68.1
2017-12-25T11:05:31.641Z,68.3
2017-12-25T11:06:35.187Z,68.7
2017-12-25T11:07:42.358Z,68.4
2017-12-25T11:08:45.823Z,68.1
2017-12-25T11:09:49.336Z,68.6
2017-12-25T11:10:54.740Z,68.2
2017-12-25T11:11:58.243Z,68.4
2017-12-25T11:13:01.698Z,68.5
2017-12-25T11:14:05.178Z,68.7
2017-12-25T11:15:09.199Z,68.1
2017-12-25T11:16:14.732Z,67.5
2017-12-25T11:17:20.023Z,68
2017-12-25T11:18:27.986Z,67.7
2017-12-25T11:19:32.312Z,68.2
2017-12-25T11:20:36.324Z,67.7
2017-12-25T11:21:41.296Z,68.6
2017-12-25T11:22:46.154Z,68.3
2017-12-25T11:23:49.986Z,68.3
2017-12-25T11:24:55.421Z,69.3
2017-12-25T11:26:00.864Z,69.8
2017-12-25T11:27:04.934Z,69.9
2017-12-25T11:28:12.637Z,69.3
2017-12-25T11:29:25.214Z,68.9
2017-12-25T11:30:29.384Z,69.4
2017-12-25T11:31:35.421Z,68.3
2017-12-25T11:32:39.099Z,68.1
2017-12-25T11:33:44.164Z,67.2
2017-12-25T11:34:48.709Z,67.4
2017-12-25T11:35:53.652Z,67.2
2017-12-25T11:36:57.122Z,67.6
2017-12-25T11:38:01.324Z,67.3
2017-12-25T11:39:05.332Z,67.2
2017-12-25T11:40:15.422Z,67.8
2017-12-25T11:41:20.641Z,67.4
2017-12-25T11:42:23.951Z,67.6
2017-12-25T11:43:28.931Z,68.1
2017-12-25T11:44:32.893Z,68.6
2017-12-25T11:45:36.328Z,69.2
2017-12-25T11:46:41.262Z,68.9
2017-12-25T11:47:45.253Z,68.7
2017-12-25T11:48:50.031Z,68.6
2017-12-25T11:49:53.651Z,69
2017-12-25T11:51:04.662Z,68.7
2017-12-25T11:52:11.759Z,68.6
2017-12-25T11:53:16.674Z,68.8
2017-12-25T11:54:23.819Z,68.8
2017-12-25T11:55:31.799Z,68.8
2017-12-25T11:56:35.769Z,68.5
2017-12-25T11:57:39.302Z,69
2017-12-25T12:23:14.273Z,63.9
2017-12-25T12:24:17.689Z,63.7
2017-12-25T12:25:21.170Z,62.8
2017-12-25T12:26:25.080Z,62.8
2017-12-25T12:27:28.601Z,63.1
2017-12-25T12:28:32.117Z,63.2
2017-12-25T12:29:35.645Z,63.9
2017-12-25T12:30:41.557Z,63.7
2017-12-25T12:31:45.130Z,64.5
2017-12-25T12:32:52.132Z,65
2017-12-25T12:33:58.265Z,65.6
2017-12-25T12:35:02.989Z,65.7
2017-12-25T12:36:10.215Z,65.9
2017-12-25T12:37:14.631Z,65
2017-12-25T12:38:20.356Z,64.5
2017-12-25T12:39:26.281Z,64.2
2017-12-25T12:40:35.031Z,63.6
2017-12-25T12:41:39.367Z,63.5
2017-12-25T12:42:43.023Z,63.8
2017-12-25T12:43:51.132Z,64.2
2017-12-25T12:44:56.546Z,64.3
2017-12-25T12:46:01.179Z,64.2
2017-12-25T12:47:04.660Z,64.3
2017-12-25T12:48:08.518Z,63.8
2017-12-25T12:49:12.237Z,63.2
2017-12-25T12:50:15.860Z,63.1
2017-12-25T12:51:20.542Z,63.3
2017-12-25T12:52:24.546Z,63.5
2017-12-25T12:53:28.136Z,63.3
2017-12-25T12:54:35.177Z,62.5
2017-12-25T12:55:39.907Z,62.4
2017-12-25T12:56:43.347Z,62.8
2017-12-25T12:57:46.936Z,63.9
2017-12-25T12:58:50.936Z,63.5
2017-12-25T12:59:55.508Z,63.4
2017-12-25T13:00:59.649Z,63.7
2017-12-25T13:02:03.219Z,63.8
2017-12-25T13:03:07.070Z,64.4
2017-12-25T13:04:11.581Z,64.2
2017-12-25T13:05:22.580Z,64.5
2017-12-25T13:06:27.825Z,64.4
2017-12-25T13:07:31.923Z,64.4
2017-12-25T13:08:38.819Z,64.3
2017-12-25T13:09:42.751Z,63.8
2017-12-25T13:10:48.306Z,64
2017-12-25T13:11:51.778Z,63.8
2017-12-25T13:12:57.106Z,63.8
2017-12-25T13:14:00.707Z,63.6
2017-12-25T13:15:04.006Z,64
2017-12-25T13:16:11.617Z,64.1
2017-12-25T13:17:15.125Z,64.6
2017-12-25T13:18:18.643Z,64.8
2017-12-25T13:19:22.205Z,65.1
2017-12-25T13:20:28.033Z,65.6
2017-12-25T13:21:31.414Z,66
2017-12-25T13:22:34.976Z,66.6
2017-12-25T13:23:39.963Z,67.1
2017-12-25T13:24:44.079Z,67.4
2017-12-25T13:25:48.286Z,67.2
2017-12-25T13:26:55.132Z,67.2
2017-12-25T13:27:58.596Z,67
2017-12-25T13:29:02.164Z,66.9
2017-12-25T13:30:05.744Z,67
2017-12-25T13:31:09.324Z,66.9
2017-12-25T13:32:12.884Z,66.5
2017-12-25T13:33:16.381Z,66.4
2017-12-25T13:34:19.901Z,66.1
2017-12-25T13:35:24.004Z,66.3
2017-12-25T13:36:27.606Z,66.5
2017-12-25T13:37:34.844Z,66.3
2017-12-25T13:38:38.479Z,66.3
2017-12-25T13:39:41.790Z,66.4
2017-12-25T13:40:45.309Z,66.2
2017-12-25T13:41:49.156Z,65.9
2017-12-25T13:42:52.697Z,65.4
2017-12-25T13:43:56.211Z,65.5
2017-12-25T13:45:00.077Z,66.2
2017-12-25T13:46:03.476Z,66.3
2017-12-25T13:47:06.994Z,66.7
2017-12-25T13:48:14.109Z,66.1
2017-12-25T13:49:18.128Z,66.3
2017-12-25T13:50:21.540Z,66.1
2017-12-25T13:51:25.026Z,65.5
2017-12-25T13:52:28.506Z,66
2017-12-25T13:53:32.119Z,65.6
2017-12-25T13:54:35.514Z,66.1
2017-12-25T13:55:39.125Z,65.9
2017-12-25T13:56:42.409Z,66.1
2017-12-25T13:57:45.932Z,66.5
2017-12-25T13:58:53.603Z,66.3
2017-12-25T13:59:57.666Z,66.5
2017-12-25T14:01:01.145Z,66.5
2017-12-25T14:02:04.528Z,66.3
2017-12-25T14:03:08.262Z,66.2
2017-12-25T14:04:12.186Z,65.8
2017-12-25T14:05:17.509Z,66.2
2017-12-25T14:06:21.881Z,66.3
2017-12-25T14:07:25.438Z,66.3
2017-12-25T14:08:31.063Z,66.5
2017-12-25T14:09:40.234Z,66.6
2017-12-25T14:10:45.042Z,66.8
2017-12-25T14:11:49.765Z,66.9
2017-12-25T14:12:54.161Z,66.7
2017-12-25T14:14:00.852Z,66.5
2017-12-25T14:15:06.342Z,66.5
2017-12-25T14:16:10.397Z,66.6
2017-12-25T14:17:13.921Z,66.6
2017-12-25T14:18:19.352Z,66.6
2017-12-25T14:19:24.785Z,66.8
2017-12-25T14:20:36.214Z,66.8
2017-12-25T14:21:42.996Z,67.2
2017-12-25T14:22:48.582Z,67
2017-12-25T14:23:53.047Z,67
2017-12-25T14:24:59.229Z,67.2
2017-12-25T14:26:07.231Z,67.1
2017-12-25T14:27:12.369Z,67.3
2017-12-25T14:28:17.663Z,67.3
2017-12-25T14:29:22.774Z,67.5
2017-12-25T14:30:27.685Z,67.8
2017-12-25T14:31:37.565Z,68.2
2017-12-25T14:32:40.759Z,68.7
2017-12-25T14:33:44.761Z,68.5
2017-12-25T14:34:48.045Z,68.2
2017-12-25T14:35:53.374Z,68.2
2017-12-25T14:36:56.875Z,68.3
2017-12-25T14:38:02.232Z,68.4
2017-12-25T14:39:07.590Z,68.4
2017-12-25T14:40:12.485Z,68.6
2017-12-25T14:41:17.956Z,68.6
2017-12-25T14:42:28.588Z,68.7
2017-12-25T14:43:33.744Z,68.8
2017-12-25T14:44:37.315Z,68.8
2017-12-25T14:45:40.946Z,69
2017-12-25T14:46:44.535Z,68.8
2017-12-25T14:47:48.667Z,68.9
2017-12-25T14:48:52.320Z,69.1